createdAt,value
2018-09-08T00:01:52.494Z,3.67
2018-09-08T00:04:21.788Z,3.50
2018-09-08T00:06:56.266Z,3.67
2018-09-08T00:09:25.751Z,3.40
2018-09-08T00:11:55.134Z,3.53
2018-09-08T00:14:24.495Z,4.83
2018-09-08T00:16:58.989Z,4.40
2018-09-08T00:19:33.453Z,4.10
2018-09-08T00:22:08.023Z,3.77
2018-09-08T00:24:42.686Z,3.83
2018-09-08T00:27:11.098Z,3.90
2018-09-08T00:29:48.761Z,3.70
2018-09-08T00:32:19.014Z,4.10
2018-09-08T00:34:48.361Z,3.23
2018-09-08T00:37:17.708Z,4.00
2018-09-08T00:39:51.030Z,3.97
2018-09-08T00:42:20.746Z,3.70
2018-09-08T00:44:50.042Z,3.93
2018-09-08T00:47:19.380Z,3.90
2018-09-08T00:49:48.861Z,4.20
2018-09-08T00:52:18.198Z,3.70
2018-09-08T00:54:47.808Z,3.80
2018-09-08T00:57:17.137Z,3.30
2018-09-08T00:59:46.445Z,3.23
2018-09-08T01:02:15.787Z,3.80
2018-09-08T01:04:45.254Z,3.33
2018-09-08T01:07:19.896Z,3.83
2018-09-08T01:09:49.226Z,4.03
2018-09-08T01:12:18.546Z,3.77
2018-09-08T01:14:47.887Z,3.50
2018-09-08T01:17:17.236Z,3.83
2018-09-08T01:19:46.558Z,3.87
2018-09-08T01:22:16.072Z,3.73
2018-09-08T01:24:45.704Z,3.77
2018-09-08T01:27:15.009Z,3.50
2018-09-08T01:29:44.331Z,3.97
2018-09-08T01:32:14.074Z,3.40
2018-09-08T01:34:43.499Z,3.83
2018-09-08T01:37:12.868Z,4.00
2018-09-08T01:39:42.237Z,3.40
2018-09-08T01:42:11.534Z,3.40
2018-09-08T01:44:40.841Z,3.87
2018-09-08T01:47:10.173Z,3.40
2018-09-08T01:49:39.516Z,4.00
2018-09-08T01:52:09.373Z,3.60
2018-09-08T01:54:38.685Z,3.40
2018-09-08T01:57:08.324Z,3.70
2018-09-08T01:59:37.629Z,3.67
2018-09-08T02:02:07.121Z,3.77
2018-09-08T02:04:36.449Z,3.97
2018-09-08T02:07:05.889Z,4.20
2018-09-08T02:09:35.225Z,4.03
2018-09-08T02:12:04.660Z,3.60
2018-09-08T02:14:33.957Z,3.60
2018-09-08T02:17:03.302Z,3.70
2018-09-08T02:19:32.613Z,3.60
2018-09-08T02:22:01.916Z,3.70
2018-09-08T02:24:31.589Z,3.37
2018-09-08T02:27:00.923Z,3.60
2018-09-08T02:29:30.453Z,3.90
2018-09-08T02:31:59.905Z,3.70
2018-09-08T02:34:29.325Z,3.30
2018-09-08T02:36:58.656Z,3.20
2018-09-08T02:39:27.999Z,3.40
2018-09-08T02:41:57.561Z,3.50
2018-09-08T02:44:26.874Z,3.67
2018-09-08T02:46:56.326Z,3.30
2018-09-08T02:49:36.848Z,3.87
2018-09-08T02:52:04.509Z,3.40
2018-09-08T02:54:32.168Z,3.97
2018-09-08T02:56:59.905Z,3.37
2018-09-08T02:59:27.598Z,4.13
2018-09-08T03:01:55.362Z,3.87
2018-09-08T03:04:23.023Z,3.77
2018-09-08T03:06:50.781Z,3.50
2018-09-08T03:09:18.429Z,3.77
2018-09-08T03:11:46.090Z,3.73
2018-09-08T03:14:13.769Z,3.77
2018-09-08T03:16:41.434Z,3.20
2018-09-08T03:19:09.076Z,3.23
2018-09-08T03:21:36.751Z,3.97
2018-09-08T03:24:04.389Z,3.33
2018-09-08T03:26:32.053Z,3.53
2018-09-08T03:28:59.745Z,4.27
2018-09-08T03:31:27.416Z,3.90
2018-09-08T03:33:55.062Z,3.80
2018-09-08T03:36:22.733Z,4.10
2018-09-08T03:38:50.380Z,4.03
2018-09-08T03:41:18.025Z,4.00
2018-09-08T03:43:45.685Z,3.73
2018-09-08T03:46:13.345Z,4.07
2018-09-08T03:48:40.994Z,4.20
2018-09-08T03:51:08.717Z,3.90
2018-09-08T03:53:36.360Z,3.93
2018-09-08T03:56:04.009Z,3.67
2018-09-08T03:58:31.697Z,3.50
2018-09-08T04:00:59.569Z,3.97
2018-09-08T04:03:29.034Z,3.77
2018-09-08T04:05:58.462Z,4.10
2018-09-08T04:08:28.070Z,3.97
2018-09-08T04:10:57.397Z,3.83
2018-09-08T04:13:26.952Z,3.80
2018-09-08T04:15:56.273Z,3.70
2018-09-08T04:18:25.587Z,3.80
2018-09-08T04:20:54.925Z,4.33
2018-09-08T04:23:24.252Z,3.80
2018-09-08T04:25:53.596Z,3.90
2018-09-08T04:28:22.981Z,3.67
2018-09-08T04:30:52.297Z,4.30
2018-09-08T04:33:21.645Z,4.23
2018-09-08T04:35:50.966Z,4.07
2018-09-08T04:38:20.651Z,3.60
2018-09-08T04:40:50.479Z,3.93
2018-09-08T04:43:20.238Z,4.37
2018-09-08T04:45:49.855Z,3.67
2018-09-08T04:48:19.550Z,3.50
2018-09-08T04:50:49.211Z,3.60
2018-09-08T04:53:19.190Z,3.80
2018-09-08T04:55:49.420Z,3.53
2018-09-08T04:58:19.082Z,3.80
2018-09-08T05:00:48.733Z,4.17
2018-09-08T05:03:18.404Z,3.53
2018-09-08T05:05:48.179Z,3.80
2018-09-08T05:08:17.830Z,3.80
2018-09-08T05:10:47.583Z,3.80
2018-09-08T05:13:17.164Z,3.60
2018-09-08T05:15:46.778Z,3.47
2018-09-08T05:18:16.411Z,3.83
2018-09-08T05:20:46.067Z,4.17
2018-09-08T05:23:15.738Z,3.80
2018-09-08T05:25:45.353Z,4.00
2018-09-08T05:28:15.023Z,4.10
2018-09-08T05:30:44.842Z,4.03
2018-09-08T05:33:14.507Z,4.17
2018-09-08T05:35:44.210Z,3.67
2018-09-08T05:38:14.015Z,4.17
2018-09-08T05:40:43.767Z,4.37
2018-09-08T05:43:13.567Z,3.83
2018-09-08T05:45:43.264Z,4.53
2018-09-08T05:48:12.991Z,3.80
2018-09-08T05:50:42.554Z,3.73
2018-09-08T05:53:12.256Z,4.33
2018-09-08T05:55:41.986Z,4.13
2018-09-08T05:58:11.799Z,3.70
2018-09-08T06:00:41.505Z,3.77
2018-09-08T06:03:11.216Z,3.73
2018-09-08T06:05:40.870Z,3.53
2018-09-08T06:08:10.624Z,3.70
2018-09-08T06:10:40.381Z,3.17
2018-09-08T06:13:10.077Z,3.57
2018-09-08T06:15:39.715Z,3.60
2018-09-08T06:18:09.402Z,3.77
2018-09-08T06:20:39.033Z,3.73
2018-09-08T06:23:08.734Z,4.13
2018-09-08T06:25:38.493Z,3.50
2018-09-08T06:28:08.104Z,3.63
2018-09-08T06:30:37.710Z,3.80
2018-09-08T06:33:07.388Z,3.43
2018-09-08T06:35:37.026Z,3.50
2018-09-08T06:38:06.977Z,3.57
2018-09-08T06:40:36.709Z,3.60
2018-09-08T06:43:06.935Z,3.53
2018-09-08T06:45:36.582Z,3.37
2018-09-08T06:48:06.552Z,3.83
2018-09-08T06:50:36.337Z,3.20
2018-09-08T06:53:06.074Z,3.07
2018-09-08T06:55:35.828Z,2.77
2018-09-08T06:58:05.563Z,2.93
2018-09-08T07:00:35.254Z,2.67
2018-09-08T07:03:05.182Z,2.83
2018-09-08T07:05:34.878Z,2.80
2018-09-08T07:08:04.531Z,2.90
2018-09-08T07:10:34.281Z,2.70
2018-09-08T07:13:04.011Z,2.33
2018-09-08T07:15:33.849Z,2.47
2018-09-08T07:18:03.602Z,2.70
2018-09-08T07:20:33.316Z,2.05
2018-09-08T07:23:03.106Z,2.73
2018-09-08T07:25:33.063Z,2.23
2018-09-08T07:28:02.803Z,2.23
2018-09-08T07:30:33.793Z,2.30
2018-09-08T07:33:03.521Z,1.90
2018-09-08T07:35:33.276Z,2.17
2018-09-08T07:38:02.896Z,2.12
2018-09-08T07:40:32.516Z,2.47
2018-09-08T07:43:02.218Z,2.20
2018-09-08T07:45:31.838Z,2.12
2018-09-08T07:48:01.475Z,2.20
2018-09-08T07:50:31.097Z,2.17
2018-09-08T07:53:00.851Z,2.10
2018-09-08T07:55:30.532Z,2.22
2018-09-08T07:58:00.375Z,2.30
2018-09-08T08:00:30.118Z,2.20
2018-09-08T08:02:59.766Z,2.00
2018-09-08T08:05:29.954Z,1.90
2018-09-08T08:08:00.480Z,1.82
2018-09-08T08:10:30.363Z,1.90
2018-09-08T08:13:00.149Z,2.00
2018-09-08T08:15:29.974Z,2.20
2018-09-08T08:17:59.962Z,2.10
2018-09-08T08:20:29.735Z,2.60
2018-09-08T08:22:59.486Z,2.40
2018-09-08T08:25:29.338Z,2.25
2018-09-08T08:27:59.204Z,2.25
2018-09-08T08:30:29.041Z,2.05
2018-09-08T08:32:59.314Z,2.40
2018-09-08T08:35:29.062Z,2.15
2018-09-08T08:37:58.779Z,2.55
2018-09-08T08:40:28.468Z,2.10
2018-09-08T08:42:58.130Z,2.27
2018-09-08T08:45:27.857Z,2.20
2018-09-08T08:47:58.126Z,1.92
2018-09-08T08:50:44.365Z,2.30
2018-09-08T08:53:30.638Z,2.30
2018-09-08T08:56:00.211Z,2.33
2018-09-08T08:58:29.905Z,2.40
2018-09-08T09:00:59.654Z,2.42
2018-09-08T09:03:29.503Z,2.40
2018-09-08T09:05:59.167Z,2.30
2018-09-08T09:08:29.328Z,2.37
2018-09-08T09:10:58.667Z,2.70
2018-09-08T09:13:28.846Z,2.77
2018-09-08T09:15:58.406Z,2.87
2018-09-08T09:18:45.444Z,3.12
2018-09-08T09:21:31.702Z,2.40
2018-09-08T09:24:29.532Z,2.47
2018-09-08T09:26:58.797Z,2.52
2018-09-08T09:29:28.505Z,2.40
2018-09-08T09:31:58.205Z,2.60
2018-09-08T09:34:27.998Z,2.83
2018-09-08T09:36:57.713Z,2.77
2018-09-08T09:39:27.466Z,2.40
2018-09-08T09:41:57.179Z,2.55
2018-09-08T09:44:27.031Z,2.87
2018-09-08T09:46:56.678Z,2.52
2018-09-08T09:49:26.407Z,3.35
2018-09-08T09:51:56.543Z,3.00
2018-09-08T09:54:26.402Z,3.02
2018-09-08T09:56:56.442Z,3.12
2018-09-08T09:59:26.232Z,2.92
2018-09-08T10:02:00.986Z,2.47
2018-09-08T10:04:30.704Z,3.12
2018-09-08T10:07:00.332Z,2.45
2018-09-08T10:09:30.505Z,3.00
2018-09-08T10:12:00.095Z,3.52
2018-09-08T10:14:29.793Z,3.30
2018-09-08T10:16:59.474Z,3.35
2018-09-08T10:19:29.241Z,3.37
2018-09-08T10:21:58.954Z,3.20
2018-09-08T10:24:28.709Z,3.50
2018-09-08T10:26:58.386Z,3.15
2018-09-08T10:29:28.079Z,3.92
2018-09-08T10:31:57.779Z,3.55
2018-09-08T10:34:27.505Z,3.60
2018-09-08T10:36:57.096Z,3.90
2018-09-08T10:39:26.876Z,3.77
2018-09-08T10:41:56.606Z,3.33
2018-09-08T10:44:26.483Z,3.30
2018-09-08T10:46:56.289Z,3.40
2018-09-08T10:49:26.200Z,3.05
2018-09-08T10:52:07.752Z,3.52
2018-09-08T10:54:37.355Z,3.58
2018-09-08T10:57:07.500Z,3.47
2018-09-08T10:59:37.117Z,2.87
2018-09-08T11:02:07.023Z,3.77
2018-09-08T11:04:36.482Z,3.52
2018-09-08T11:07:06.096Z,3.25
2018-09-08T11:09:35.766Z,3.37
2018-09-08T11:12:05.365Z,2.92
2018-09-08T11:14:35.032Z,3.47
2018-09-08T11:17:04.661Z,3.62
2018-09-08T11:19:34.320Z,3.62
2018-09-08T11:22:04.034Z,3.30
2018-09-08T11:24:33.933Z,4.33
2018-09-08T11:27:03.617Z,3.95
2018-09-08T11:29:33.219Z,3.20
2018-09-08T11:32:02.778Z,3.65
2018-09-08T11:34:32.627Z,3.58
2018-09-08T11:37:02.271Z,3.40
2018-09-08T11:39:31.778Z,3.58
2018-09-08T11:42:01.444Z,3.30
2018-09-08T11:44:31.057Z,3.70
2018-09-08T11:47:01.010Z,3.65
2018-09-08T11:49:30.755Z,3.40
2018-09-08T11:52:00.590Z,3.95
2018-09-08T11:54:30.303Z,3.42
2018-09-08T11:57:00.011Z,3.58
2018-09-08T11:59:29.669Z,3.25
2018-09-08T12:01:59.336Z,3.10
2018-09-08T12:04:29.030Z,3.02
2018-09-08T12:06:58.763Z,3.20
2018-09-08T12:09:28.292Z,3.15
2018-09-08T12:11:58.035Z,3.15
2018-09-08T12:14:27.626Z,3.35
2018-09-08T12:16:57.509Z,2.67
2018-09-08T12:19:27.194Z,2.80
2018-09-08T12:21:57.050Z,3.20
2018-09-08T12:24:26.797Z,3.05
2018-09-08T12:26:56.439Z,3.58
2018-09-08T12:29:26.014Z,2.87
2018-09-08T12:31:55.698Z,2.60
2018-09-08T12:34:25.354Z,3.10
2018-09-08T12:36:55.061Z,2.72
2018-09-08T12:39:24.988Z,3.12
2018-09-08T12:41:55.029Z,2.90
2018-09-08T12:44:24.902Z,2.80
2018-09-08T12:46:54.550Z,2.60
2018-09-08T12:49:24.130Z,2.40
2018-09-08T12:51:53.738Z,2.37
2018-09-08T12:54:23.397Z,2.47
2018-09-08T12:56:53.076Z,2.50
2018-09-08T12:59:22.714Z,2.30
2018-09-08T13:01:52.246Z,2.55
2018-09-08T13:04:21.826Z,2.80
2018-09-08T13:06:51.512Z,2.37
2018-09-08T13:09:21.210Z,2.58
2018-09-08T13:11:50.853Z,2.15
2018-09-08T13:14:20.465Z,2.08
2018-09-08T13:16:49.862Z,2.05
2018-09-08T13:19:19.466Z,2.02
2018-09-08T13:21:49.113Z,2.17
2018-09-08T13:24:18.738Z,1.80
2018-09-08T13:26:48.395Z,1.80
2018-09-08T13:29:18.046Z,2.12
2018-09-08T13:31:47.739Z,1.85
2018-09-08T13:34:17.368Z,2.22
2018-09-08T13:36:46.724Z,2.12
2018-09-08T13:39:16.129Z,2.02
2018-09-08T13:41:45.714Z,2.12
2018-09-08T13:44:15.102Z,1.72
2018-09-08T13:46:44.410Z,2.05
2018-09-08T13:49:13.808Z,2.00
2018-09-08T13:51:43.147Z,2.10
2018-09-08T13:54:12.429Z,1.75
2018-09-08T13:56:41.782Z,1.90
2018-09-08T13:59:11.118Z,2.00
2018-09-08T14:01:40.413Z,2.10
2018-09-08T14:04:09.749Z,1.98
2018-09-08T14:06:39.086Z,2.22
2018-09-08T14:09:08.418Z,2.40
2018-09-08T14:11:37.877Z,2.50
2018-09-08T14:14:07.257Z,2.10
2018-09-08T14:16:36.665Z,2.33
2018-09-08T14:19:06.193Z,1.98
2018-09-08T14:21:35.517Z,2.22
2018-09-08T14:24:04.829Z,1.77
2018-09-08T14:26:34.161Z,2.15
2018-09-08T14:29:03.537Z,1.75
2018-09-08T14:31:32.846Z,2.05
2018-09-08T14:34:02.249Z,1.70
2018-09-08T14:36:31.591Z,2.10
2018-09-08T14:39:00.898Z,1.50
2018-09-08T14:41:30.184Z,1.98
2018-09-08T14:43:59.556Z,1.57
2018-09-08T14:46:32.733Z,1.40
2018-09-08T14:49:02.103Z,1.75
2018-09-08T14:51:31.401Z,1.65
2018-09-08T14:54:00.950Z,1.87
2018-09-08T14:56:30.557Z,1.90
2018-09-08T14:58:59.978Z,1.90
2018-09-08T15:01:29.357Z,1.87
2018-09-08T15:03:58.761Z,1.60
2018-09-08T15:06:28.103Z,1.80
2018-09-08T15:08:57.753Z,1.92
2018-09-08T15:11:27.097Z,2.30
2018-09-08T15:13:56.722Z,1.77
2018-09-08T15:16:26.071Z,2.37
2018-09-08T15:18:55.437Z,2.02
2018-09-08T15:21:24.899Z,2.05
2018-09-08T15:23:54.679Z,2.15
2018-09-08T15:26:54.635Z,1.90
2018-09-08T15:29:23.993Z,2.00
2018-09-08T15:31:53.312Z,1.80
2018-09-08T15:37:26.499Z,1.90
2018-09-08T15:39:55.938Z,2.00
2018-09-08T15:42:25.267Z,2.10
2018-09-08T15:44:54.609Z,1.90
2018-09-08T15:47:23.926Z,2.15
2018-09-08T15:49:53.328Z,1.90
2018-09-08T15:52:22.736Z,2.00
2018-09-08T15:54:52.055Z,2.20
2018-09-08T15:57:21.465Z,1.80
2018-09-08T15:59:51.086Z,2.02
2018-09-08T16:02:20.441Z,1.75
2018-09-08T16:04:49.749Z,2.00
2018-09-08T16:07:19.236Z,1.80
2018-09-08T16:09:48.569Z,2.25
2018-09-08T16:12:18.013Z,2.15
2018-09-08T16:14:47.353Z,2.40
2018-09-08T16:17:16.676Z,2.35
2018-09-08T16:19:46.556Z,2.45
2018-09-08T16:22:16.074Z,1.75
2018-09-08T16:24:45.777Z,2.27
2018-09-08T16:27:17.542Z,2.33
2018-09-08T16:29:47.219Z,2.08
2018-09-08T16:32:16.864Z,2.12
2018-09-08T16:34:46.596Z,2.47
2018-09-08T16:37:16.162Z,2.47
2018-09-08T16:39:46.111Z,2.30
2018-09-08T16:42:15.782Z,2.47
2018-09-08T16:44:45.423Z,1.92
2018-09-08T16:47:15.114Z,2.20
2018-09-08T16:49:44.854Z,2.22
2018-09-08T16:52:14.471Z,2.37
2018-09-08T16:54:47.858Z,2.55
2018-09-08T16:57:17.444Z,2.40
2018-09-08T16:59:47.035Z,2.27
2018-09-08T17:02:16.682Z,2.10
2018-09-08T17:04:46.295Z,2.50
2018-09-08T17:07:16.033Z,2.50
2018-09-08T17:09:45.667Z,2.40
2018-09-08T17:12:15.328Z,2.70
2018-09-08T17:14:45.046Z,3.00
2018-09-08T17:17:14.678Z,2.60
2018-09-08T17:19:44.381Z,2.80
2018-09-08T17:22:14.120Z,2.83
2018-09-08T17:24:43.779Z,2.53
2018-09-08T17:27:13.403Z,2.73
2018-09-08T17:29:43.134Z,3.27
2018-09-08T17:32:13.040Z,3.10
2018-09-08T17:34:42.765Z,3.60
2018-09-08T17:37:12.568Z,2.93
2018-09-08T17:39:42.268Z,2.60
2018-09-08T17:42:12.003Z,3.00
2018-09-08T17:44:41.723Z,3.40
2018-09-08T17:47:11.482Z,3.23
2018-09-08T17:49:41.137Z,2.80
2018-09-08T17:52:10.936Z,2.80
2018-09-08T17:54:40.583Z,2.83
2018-09-08T17:57:10.258Z,3.13
2018-09-08T17:59:40.098Z,3.70
2018-09-08T18:02:09.907Z,3.60
2018-09-08T18:04:39.670Z,3.90
2018-09-08T18:07:13.327Z,4.13
2018-09-08T18:09:43.058Z,4.10
2018-09-08T18:14:52.770Z,4.00
2018-09-08T18:17:22.234Z,4.50
2018-09-08T18:19:51.557Z,4.37
2018-09-08T18:22:20.873Z,4.40
2018-09-08T18:24:50.185Z,4.80
2018-09-08T18:27:19.517Z,5.07
2018-09-08T18:29:48.953Z,4.23
2018-09-08T18:32:18.278Z,3.90
2018-09-08T18:34:47.585Z,4.23
2018-09-08T18:37:16.962Z,3.90
2018-09-08T18:39:46.292Z,3.73
2018-09-08T18:42:15.586Z,3.80
2018-09-08T18:44:44.914Z,4.27
2018-09-08T18:47:14.230Z,4.67
2018-09-08T18:49:43.549Z,4.97
2018-09-08T18:52:12.985Z,3.90
2018-09-08T18:54:42.284Z,4.13
2018-09-08T18:57:12.045Z,4.77
2018-09-08T18:59:41.390Z,4.83
2018-09-08T19:02:10.697Z,4.77
2018-09-08T19:04:39.991Z,4.60
2018-09-08T19:07:09.365Z,4.77
2018-09-08T19:09:38.863Z,4.17
2018-09-08T19:12:08.182Z,4.17
2018-09-08T19:14:42.881Z,4.10
2018-09-08T19:17:12.447Z,4.23
2018-09-08T19:19:41.807Z,3.60
2018-09-08T19:22:11.206Z,4.60
2018-09-08T19:24:43.530Z,3.80
2018-09-08T19:27:13.932Z,3.97
2018-09-08T19:29:48.965Z,4.80
2018-09-08T19:32:19.527Z,4.27
2018-09-08T19:35:57.825Z,3.60
2018-09-08T19:38:27.179Z,3.50
2018-09-08T19:40:56.478Z,3.77
2018-09-08T19:43:25.800Z,3.33
2018-09-08T19:45:55.214Z,3.77
2018-09-08T19:48:24.526Z,3.50
2018-09-08T19:50:53.821Z,3.27
2018-09-08T19:53:28.457Z,3.67
2018-09-08T19:55:57.773Z,3.50
2018-09-08T19:58:32.292Z,3.60
2018-09-08T20:01:01.604Z,4.10
2018-09-08T20:03:30.917Z,4.10
2018-09-08T20:06:00.236Z,3.97
2018-09-08T20:08:29.535Z,4.07
2018-09-08T20:10:58.901Z,4.27
2018-09-08T20:13:28.278Z,5.00
2018-09-08T20:15:57.673Z,5.10
2018-09-08T20:18:27.080Z,5.00
2018-09-08T20:20:56.573Z,5.30
2018-09-08T20:23:25.909Z,4.87
2018-09-08T20:25:55.314Z,5.07
2018-09-08T20:28:24.657Z,4.10
2018-09-08T20:30:53.999Z,4.83
2018-09-08T20:33:23.434Z,3.83
2018-09-08T20:35:52.879Z,3.93
2018-09-08T20:38:22.494Z,4.00
2018-09-08T20:40:52.231Z,3.97
2018-09-08T20:43:21.966Z,4.20
2018-09-08T20:45:52.178Z,4.10
2018-09-08T20:48:21.905Z,3.60
2018-09-08T20:50:51.891Z,3.97
2018-09-08T20:53:22.242Z,5.33
2018-09-08T20:55:51.862Z,4.70
2018-09-08T20:58:21.698Z,4.63
2018-09-08T21:00:51.418Z,4.57
2018-09-08T21:03:21.313Z,4.40
2018-09-08T21:05:50.971Z,4.23
2018-09-08T21:08:20.863Z,4.27
2018-09-08T21:10:50.519Z,5.00
2018-09-08T21:13:20.391Z,5.40
2018-09-08T21:15:50.103Z,4.43
2018-09-08T21:18:19.828Z,4.20
2018-09-08T21:20:49.545Z,4.57
2018-09-08T21:23:19.215Z,4.37
2018-09-08T21:25:48.941Z,4.60
2018-09-08T21:28:18.636Z,4.80
2018-09-08T21:30:48.451Z,4.53
2018-09-08T21:33:18.442Z,4.37
2018-09-08T21:35:48.270Z,4.87
2018-09-08T21:38:18.276Z,4.73
2018-09-08T21:40:48.010Z,4.43
2018-09-08T21:43:17.646Z,4.20
2018-09-08T21:45:47.563Z,4.70
2018-09-08T21:48:17.330Z,3.73
2018-09-08T21:50:46.999Z,4.50
2018-09-08T21:53:16.660Z,4.00
2018-09-08T21:55:46.450Z,4.00
2018-09-08T21:58:16.432Z,4.03
2018-09-08T22:00:51.314Z,3.90
2018-09-08T22:03:21.296Z,4.33
2018-09-08T22:05:51.024Z,4.17
2018-09-08T22:08:20.930Z,3.97
2018-09-08T22:10:50.720Z,3.83
2018-09-08T22:13:20.663Z,4.10
2018-09-08T22:15:50.584Z,3.80
2018-09-08T22:18:20.352Z,4.00
2018-09-08T22:20:50.130Z,3.90
2018-09-08T22:23:20.096Z,4.07
2018-09-08T22:25:49.774Z,4.07
2018-09-08T22:28:19.418Z,3.90
2018-09-08T22:30:49.214Z,3.60
2018-09-08T22:33:18.902Z,3.80
2018-09-08T22:35:48.574Z,4.40
2018-09-08T22:38:18.416Z,4.00
2018-09-08T22:40:48.160Z,4.30
2018-09-08T22:43:17.966Z,4.17
2018-09-08T22:45:47.667Z,4.30
2018-09-08T22:48:17.305Z,4.90
2018-09-08T22:50:46.996Z,4.00
2018-09-08T22:53:16.721Z,4.33
2018-09-08T22:55:46.514Z,4.03
2018-09-08T22:58:16.198Z,4.10
2018-09-08T23:00:45.980Z,4.30
2018-09-08T23:03:15.708Z,4.80
2018-09-08T23:05:45.433Z,4.60
2018-09-08T23:10:53.498Z,5.03
2018-09-08T23:13:23.165Z,4.53
2018-09-08T23:15:52.793Z,4.43
2018-09-08T23:18:22.535Z,5.00
2018-09-08T23:20:52.279Z,4.60
2018-09-08T23:23:22.098Z,5.10
2018-09-08T23:25:51.862Z,4.70
2018-09-08T23:28:21.590Z,4.20
2018-09-08T23:30:51.403Z,4.20
2018-09-08T23:33:21.179Z,4.87
2018-09-08T23:35:50.903Z,4.40
2018-09-08T23:38:20.522Z,4.23
2018-09-08T23:40:50.299Z,4.57
2018-09-08T23:43:20.027Z,4.60
2018-09-08T23:45:49.767Z,4.80
2018-09-08T23:48:19.519Z,4.53
2018-09-08T23:50:49.189Z,4.57
2018-09-08T23:53:19.272Z,4.93
2018-09-08T23:55:49.126Z,5.20
2018-09-08T23:58:18.990Z,4.60
